Time;durP1;ratioP1;P1;durP2;ratioP2;P2;SDS_P1;SDS_P2;PMS_P1;PMS_P2;Temp;Humidity;BMP_temperature;BMP_pressure;BME280_temperature;BME280_humidity;BME280_pressure;Samples;Min_cycle;Max_cycle;Signal;HPM_P1;HPM_P2
2021/01/03 00:00:49;;;;;;;31.95;14.55;;;-0.40;99.90;;;;;;5037127;28;20036;-54
2021/01/03 00:03:15;;;;;;;33.42;14.60;;;-0.40;99.90;;;;;;5034361;28;20343;-51
2021/01/03 00:05:40;;;;;;;35.60;15.02;;;-0.40;99.90;;;;;;5038425;28;20022;-53
2021/01/03 00:08:06;;;;;;;40.08;19.52;;;-0.40;99.90;;;;;;5035166;28;20053;-50
2021/01/03 00:10:31;;;;;;;35.83;15.60;;;-0.40;99.90;;;;;;5041095;28;20021;-50
2021/01/03 00:12:57;;;;;;;31.92;13.98;;;-0.30;99.90;;;;;;5035875;28;20025;-49
2021/01/03 00:15:24;;;;;;;36.60;16.10;;;-0.30;99.90;;;;;;5038302;28;20029;-51
2021/01/03 00:17:50;;;;;;;34.95;14.25;;;-0.30;99.90;;;;;;5037383;28;20018;-51
2021/01/03 00:20:20;;;;;;;49.88;19.20;;;-0.30;99.90;;;;;;5036559;28;20498;-50
2021/01/03 00:22:48;;;;;;;35.15;15.57;;;-0.30;99.90;;;;;;5038767;28;20033;-51
2021/01/03 00:25:14;;;;;;;46.30;20.00;;;-0.30;99.90;;;;;;5045583;28;20486;-51
2021/01/03 00:27:40;;;;;;;39.38;16.67;;;-0.30;99.90;;;;;;5032275;28;20485;-46
2021/01/03 00:30:09;;;;;;;58.50;21.80;;;-0.30;99.90;;;;;;5044273;28;20109;-48
2021/01/03 00:32:35;;;;;;;62.63;23.35;;;-0.30;99.90;;;;;;5045046;28;20045;-51
2021/01/03 00:35:00;;;;;;;79.70;29.15;;;-0.30;99.90;;;;;;5038029;28;20028;-50
2021/01/03 00:37:26;;;;;;;62.33;23.63;;;-0.30;99.90;;;;;;5038687;28;20053;-54
2021/01/03 00:39:52;;;;;;;74.45;26.58;;;-0.30;99.90;;;;;;5049010;28;20488;-49
2021/01/03 00:42:17;;;;;;;48.55;19.67;;;-0.30;99.90;;;;;;5043015;28;20597;-48
2021/01/03 00:44:44;;;;;;;65.15;23.88;;;-0.30;99.90;;;;;;5042641;28;20037;-48
2021/01/03 00:47:10;;;;;;;55.30;20.73;;;-0.30;99.90;;;;;;5040078;28;20541;-48
2021/01/03 00:49:35;;;;;;;50.35;20.10;;;-0.40;99.90;;;;;;5047849;28;20045;-49
2021/01/03 00:52:02;;;;;;;57.58;20.45;;;-0.40;99.90;;;;;;5041724;28;20052;-48
2021/01/03 00:54:28;;;;;;;60.08;24.73;;;-0.50;99.90;;;;;;5049557;28;20033;-50
2021/01/03 00:56:53;;;;;;;56.13;21.48;;;-0.60;99.90;;;;;;5036439;28;20152;-52
2021/01/03 00:59:19;;;;;;;60.55;23.17;;;-0.60;99.90;;;;;;5031720;28;20530;-51
2021/01/03 01:01:44;;;;;;;50.47;18.52;;;-0.60;99.90;;;;;;5036210;28;20050;-51
2021/01/03 01:04:10;;;;;;;67.03;23.30;;;-0.70;99.90;;;;;;5038797;28;20060;-51
2021/01/03 01:06:36;;;;;;;62.67;22.20;;;-0.70;99.90;;;;;;5042354;28;20469;-49
2021/01/03 01:09:01;;;;;;;49.75;20.83;;;-0.60;99.90;;;;;;5035380;28;20033;-51
2021/01/03 01:11:29;;;;;;;56.10;20.67;;;-0.60;99.90;;;;;;5040388;28;20112;-50
2021/01/03 01:13:55;;;;;;;51.95;20.25;;;-0.60;99.90;;;;;;5038002;28;20025;-54
2021/01/03 01:16:21;;;;;;;47.75;20.10;;;-0.50;99.90;;;;;;5035325;28;20482;-48
2021/01/03 01:18:46;;;;;;;53.28;20.40;;;-0.50;99.90;;;;;;5032495;28;20041;-51
2021/01/03 01:21:12;;;;;;;50.00;19.88;;;-0.40;99.90;;;;;;5035739;28;20371;-52
2021/01/03 01:23:38;;;;;;;42.33;17.00;;;-0.40;99.90;;;;;;5037729;28;20036;-47
2021/01/03 01:26:03;;;;;;;38.08;15.05;;;-0.30;99.90;;;;;;5038923;28;20044;-51
2021/01/03 01:28:30;;;;;;;43.83;16.98;;;-0.30;99.90;;;;;;5038932;28;20036;-50
2021/01/03 01:30:57;;;;;;;32.75;14.35;;;-0.20;99.90;;;;;;5032071;28;20037;-50
2021/01/03 01:33:23;;;;;;;32.75;13.05;;;-0.20;99.90;;;;;;5035047;28;20061;-52
2021/01/03 01:35:48;;;;;;;24.50;12.02;;;-0.20;99.90;;;;;;5038006;28;20126;-50
2021/01/03 01:38:14;;;;;;;31.50;14.07;;;-0.20;99.90;;;;;;5032525;28;20033;-50
2021/01/03 01:40:41;;;;;;;37.28;14.32;;;-0.20;99.90;;;;;;5064627;28;20029;-46
2021/01/03 01:43:11;;;;;;;30.20;13.00;;;-0.20;99.90;;;;;;5035253;28;20032;-48
2021/01/03 01:45:40;;;;;;;32.42;12.65;;;-0.10;99.90;;;;;;5034450;28;20033;-51
2021/01/03 01:48:39;;;;;;;30.77;13.18;;;-0.10;99.90;;;;;;5034400;28;20448;-52
2021/01/03 01:51:19;;;;;;;34.35;14.23;;;-0.10;99.90;;;;;;5023716;28;20119;-50
2021/01/03 01:54:05;;;;;;;36.75;15.00;;;-0.10;99.90;;;;;;5032576;28;20175;-51
2021/01/03 01:57:04;;;;;;;31.38;12.88;;;-0.10;99.90;;;;;;5037504;28;20037;-48
2021/01/03 01:59:58;;;;;;;32.70;13.73;;;-0.10;99.90;;;;;;5035995;28;20113;-47
2021/01/03 02:02:35;;;;;;;36.08;14.00;;;-0.10;99.90;;;;;;5035890;28;20108;-50
2021/01/03 02:05:21;;;;;;;30.48;12.65;;;-0.10;99.90;;;;;;5036086;28;20429;-49
2021/01/03 02:08:00;;;;;;;28.23;12.45;;;-0.10;99.90;;;;;;5034877;28;20033;-50
2021/01/03 02:10:34;;;;;;;35.75;14.23;;;-0.10;99.90;;;;;;5032867;28;20045;-48
2021/01/03 02:13:14;;;;;;;39.50;14.18;;;-0.10;99.90;;;;;;5036911;28;20033;-48
2021/01/03 02:15:40;;;;;;;32.20;12.73;;;-0.10;99.90;;;;;;5042825;28;20037;-49
2021/01/03 02:18:09;;;;;;;32.50;14.35;;;-0.10;99.90;;;;;;5036039;28;20128;-48
2021/01/03 02:20:57;;;;;;;27.45;10.65;;;-0.10;99.90;;;;;;5038758;28;20415;-50
2021/01/03 02:23:37;;;;;;;35.67;14.40;;;-0.10;99.90;;;;;;5034700;28;20470;-49
2021/01/03 02:26:04;;;;;;;33.65;14.30;;;0.00;99.90;;;;;;5034683;28;20029;-47
2021/01/03 02:28:37;;;;;;;25.33;12.52;;;-0.10;99.90;;;;;;5030826;28;20047;-50
2021/01/03 02:31:04;;;;;;;29.30;13.48;;;0.00;99.90;;;;;;5034221;28;20033;-51
2021/01/03 02:33:35;;;;;;;29.73;12.27;;;0.00;99.90;;;;;;5037743;28;20041;-50
2021/01/03 02:36:06;;;;;;;25.00;11.90;;;0.00;99.90;;;;;;5044833;28;20070;-49
2021/01/03 02:38:35;;;;;;;27.65;12.23;;;0.00;99.90;;;;;;5039305;28;20033;-50
2021/01/03 02:41:01;;;;;;;26.40;12.75;;;0.00;99.90;;;;;;5031941;28;20060;-52
2021/01/03 02:43:26;;;;;;;29.48;12.57;;;0.10;99.90;;;;;;5036497;28;20104;-48
2021/01/03 02:45:53;;;;;;;28.73;11.82;;;0.10;99.90;;;;;;5044268;28;20371;-51
2021/01/03 02:48:23;;;;;;;27.98;11.85;;;0.20;99.90;;;;;;5031224;28;20022;-50
2021/01/03 02:50:50;;;;;;;22.88;9.95;;;0.20;99.90;;;;;;5037549;28;20049;-49
2021/01/03 02:53:16;;;;;;;28.38;12.20;;;0.20;99.90;;;;;;5035663;28;20022;-49
2021/01/03 02:55:42;;;;;;;24.73;10.73;;;0.30;99.90;;;;;;5032910;28;20048;-53
2021/01/03 02:58:07;;;;;;;21.05;9.68;;;0.30;99.90;;;;;;5036121;28;20162;-51
2021/01/03 03:00:36;;;;;;;19.60;9.30;;;0.30;99.90;;;;;;5033403;28;20037;-49
2021/01/03 03:03:07;;;;;;;26.33;12.35;;;0.30;99.90;;;;;;5037181;28;20067;-51
2021/01/03 03:05:32;;;;;;;25.83;12.70;;;0.40;99.90;;;;;;5039256;28;20057;-46
2021/01/03 03:07:58;;;;;;;20.70;9.13;;;0.40;99.90;;;;;;5031737;28;20564;-50
2021/01/03 03:10:23;;;;;;;18.63;9.30;;;0.40;99.90;;;;;;5033640;28;20039;-51
2021/01/03 03:12:51;;;;;;;21.90;9.10;;;0.50;99.90;;;;;;5035661;28;20026;-48
2021/01/03 03:15:18;;;;;;;22.10;9.68;;;0.50;99.90;;;;;;5035818;28;20127;-47
2021/01/03 03:17:43;;;;;;;20.80;8.73;;;0.50;99.90;;;;;;5032478;28;20112;-50
2021/01/03 03:20:10;;;;;;;22.35;10.50;;;0.50;99.90;;;;;;5033974;28;20112;-50
2021/01/03 03:22:36;;;;;;;18.80;8.45;;;0.50;99.90;;;;;;5034002;28;20098;-53
2021/01/03 03:25:03;;;;;;;23.58;9.38;;;0.50;99.90;;;;;;5037240;28;20057;-48
2021/01/03 03:27:29;;;;;;;20.00;9.27;;;0.50;99.90;;;;;;5031771;28;20033;-49
2021/01/03 03:29:54;;;;;;;22.00;10.43;;;0.60;99.90;;;;;;5044320;28;20044;-45
2021/01/03 03:32:20;;;;;;;21.00;10.55;;;0.60;99.90;;;;;;5039999;28;20060;-47
2021/01/03 03:34:45;;;;;;;20.30;10.00;;;0.60;99.90;;;;;;5036078;28;20422;-50
2021/01/03 03:37:11;;;;;;;24.10;12.27;;;0.60;99.90;;;;;;5044527;28;20057;-47
2021/01/03 03:39:36;;;;;;;18.08;9.80;;;0.70;99.90;;;;;;5036252;28;20038;-50
2021/01/03 03:42:01;;;;;;;20.13;9.32;;;0.70;99.90;;;;;;5035656;28;20022;-50
2021/01/03 03:44:29;;;;;;;18.92;8.52;;;0.70;99.90;;;;;;5033868;28;20096;-51
2021/01/03 03:46:57;;;;;;;17.20;7.95;;;0.70;99.90;;;;;;5034319;28;20371;-52
2021/01/03 03:49:23;;;;;;;16.08;8.02;;;0.70;99.90;;;;;;5034252;28;20022;-54
2021/01/03 03:51:56;;;;;;;17.00;8.10;;;0.70;99.90;;;;;;5043071;28;20201;-50
2021/01/03 03:54:22;;;;;;;18.08;9.10;;;0.70;99.90;;;;;;5043630;28;20041;-47
2021/01/03 03:56:56;;;;;;;15.90;7.55;;;0.70;99.90;;;;;;5034209;28;20022;-50
2021/01/03 03:59:24;;;;;;;17.55;8.35;;;0.80;99.90;;;;;;5039241;28;20059;-50
2021/01/03 04:01:50;;;;;;;17.33;8.15;;;0.80;99.90;;;;;;5046174;28;20025;-48
2021/01/03 04:04:17;;;;;;;18.45;8.68;;;0.80;99.90;;;;;;5041155;28;20066;-50
2021/01/03 04:06:42;;;;;;;16.85;9.05;;;0.80;99.90;;;;;;5041749;28;20053;-47
2021/01/03 04:09:09;;;;;;;13.18;7.32;;;0.80;99.90;;;;;;5038444;28;20064;-51
2021/01/03 04:11:38;;;;;;;18.90;9.38;;;0.80;99.90;;;;;;5035882;28;20025;-48
2021/01/03 04:14:04;;;;;;;13.60;7.75;;;0.80;99.90;;;;;;5035865;28;20084;-49
2021/01/03 04:16:29;;;;;;;17.60;8.35;;;0.80;99.90;;;;;;5033636;28;20148;-49
2021/01/03 04:18:55;;;;;;;15.95;8.05;;;0.80;99.90;;;;;;5038033;28;20428;-50
2021/01/03 04:21:20;;;;;;;19.00;9.13;;;0.90;99.90;;;;;;5033481;28;20044;-48
2021/01/03 04:23:46;;;;;;;15.38;8.02;;;0.90;99.90;;;;;;5039579;28;20120;-48
2021/01/03 04:26:18;;;;;;;17.02;8.45;;;0.90;99.90;;;;;;5035342;28;20025;-46
2021/01/03 04:28:43;;;;;;;17.40;8.35;;;0.90;99.90;;;;;;5032554;28;20044;-47
2021/01/03 04:31:09;;;;;;;17.08;8.70;;;0.90;99.90;;;;;;5038387;28;20155;-47
2021/01/03 04:33:34;;;;;;;16.27;8.25;;;0.90;99.90;;;;;;5038126;28;20025;-48
2021/01/03 04:36:00;;;;;;;15.30;7.95;;;0.90;99.90;;;;;;5035343;28;20036;-48
2021/01/03 04:38:26;;;;;;;16.05;8.45;;;0.90;99.90;;;;;;5067645;28;20501;-48
2021/01/03 04:40:54;;;;;;;17.40;7.75;;;0.90;99.90;;;;;;5035905;28;20391;-51
2021/01/03 04:43:21;;;;;;;15.57;8.70;;;0.90;99.90;;;;;;5035441;28;20033;-49
2021/01/03 04:45:47;;;;;;;18.45;9.00;;;1.00;99.90;;;;;;5035811;28;20128;-47
2021/01/03 04:48:26;;;;;;;16.83;8.02;;;0.90;99.90;;;;;;5036828;28;20651;-50
2021/01/03 04:51:16;;;;;;;15.75;8.48;;;1.00;99.90;;;;;;5036403;28;20060;-46
2021/01/03 04:53:49;;;;;;;13.63;7.30;;;0.90;99.90;;;;;;5032941;28;20419;-50
2021/01/03 04:56:37;;;;;;;14.13;6.82;;;0.90;99.90;;;;;;5032636;28;20048;-51
2021/01/03 04:59:40;;;;;;;18.17;8.43;;;1.00;99.90;;;;;;5031571;28;20021;-49
2021/01/03 05:02:24;;;;;;;18.38;9.38;;;1.00;99.90;;;;;;5030400;28;20686;-52
2021/01/03 05:05:09;;;;;;;17.58;8.40;;;1.00;99.90;;;;;;5033318;28;20033;-48
2021/01/03 05:07:39;;;;;;;14.18;6.97;;;1.00;99.90;;;;;;5036669;28;20059;-48
2021/01/03 05:10:17;;;;;;;16.38;8.32;;;0.90;99.90;;;;;;5038753;28;20033;-46
2021/01/03 05:12:53;;;;;;;15.95;7.22;;;1.00;99.90;;;;;;5048492;28;20048;-48
2021/01/03 05:15:31;;;;;;;13.02;6.93;;;1.00;99.90;;;;;;5030465;28;20033;-48
2021/01/03 05:17:59;;;;;;;16.67;7.53;;;0.90;99.90;;;;;;5043387;28;20075;-48
2021/01/03 05:20:24;;;;;;;17.40;9.45;;;0.90;99.90;;;;;;5037583;28;20095;-53
2021/01/03 05:22:50;;;;;;;18.05;8.23;;;0.90;99.90;;;;;;5038081;28;20037;-48
2021/01/03 05:25:37;;;;;;;15.05;8.70;;;0.90;99.90;;;;;;5032550;28;20421;-51
2021/01/03 05:28:06;;;;;;;16.20;8.10;;;0.90;99.90;;;;;;5056536;28;20124;-49
2021/01/03 05:30:32;;;;;;;20.23;9.13;;;0.90;99.90;;;;;;5039091;28;20513;-49
2021/01/03 05:33:10;;;;;;;14.77;6.82;;;0.80;99.90;;;;;;5036398;28;20394;-46
2021/01/03 05:35:39;;;;;;;18.13;8.95;;;0.90;99.90;;;;;;5041110;28;20033;-51
2021/01/03 05:38:07;;;;;;;14.77;7.82;;;0.80;99.90;;;;;;5035073;28;20437;-49
2021/01/03 05:40:42;;;;;;;20.45;9.45;;;0.80;99.90;;;;;;5034994;28;20021;-47
2021/01/03 05:43:13;;;;;;;18.30;10.05;;;0.70;99.90;;;;;;5035752;28;20383;-53
2021/01/03 05:46:02;;;;;;;15.85;8.52;;;0.70;99.90;;;;;;5036635;28;20028;-48
2021/01/03 05:48:46;;;;;;;21.33;10.52;;;0.80;99.90;;;;;;5035748;28;20437;-48
2021/01/03 05:51:28;;;;;;;20.75;10.02;;;0.70;99.90;;;;;;5034593;28;20083;-49
2021/01/03 05:54:01;;;;;;;21.98;10.05;;;0.70;99.90;;;;;;5033565;28;20079;-50
2021/01/03 05:56:27;;;;;;;23.35;9.93;;;0.60;99.90;;;;;;5042874;28;20739;-54
2021/01/03 05:58:54;;;;;;;24.27;11.18;;;0.60;99.90;;;;;;5032413;28;20025;-48
2021/01/03 06:01:29;;;;;;;22.50;11.25;;;0.60;99.90;;;;;;5044471;28;20386;-52
2021/01/03 06:04:19;;;;;;;22.90;10.80;;;0.60;99.90;;;;;;5037909;28;20025;-46
2021/01/03 06:06:50;;;;;;;21.92;9.10;;;0.60;99.90;;;;;;5036700;28;20025;-48
2021/01/03 06:09:21;;;;;;;20.02;9.02;;;0.50;99.90;;;;;;5033509;28;20036;-47
2021/01/03 06:12:05;;;;;;;22.33;9.60;;;0.50;99.90;;;;;;5035812;28;20035;-52
2021/01/03 06:14:32;;;;;;;22.30;9.48;;;0.50;99.90;;;;;;5034200;28;20048;-48
2021/01/03 06:17:06;;;;;;;19.17;8.13;;;0.50;99.90;;;;;;5032953;28;20374;-51
2021/01/03 06:19:46;;;;;;;19.13;9.88;;;0.50;99.90;;;;;;5036306;28;20048;-49
2021/01/03 06:22:41;;;;;;;23.05;10.35;;;0.50;99.90;;;;;;5033082;28;20025;-52
2021/01/03 06:25:31;;;;;;;24.90;11.52;;;0.50;99.90;;;;;;5028360;28;20037;-53
2021/01/03 06:28:22;;;;;;;25.83;12.35;;;0.50;99.90;;;;;;5038521;28;20040;-47
2021/01/03 06:31:21;;;;;;;25.52;11.57;;;0.50;99.90;;;;;;5023781;28;20049;-49
2021/01/03 06:33:49;;;;;;;22.00;10.70;;;0.50;99.90;;;;;;5035973;28;20083;-52
2021/01/03 06:36:20;;;;;;;22.75;10.18;;;0.50;99.90;;;;;;5033905;28;20033;-46
2021/01/03 06:39:10;;;;;;;27.63;11.68;;;0.50;99.90;;;;;;5033214;28;20113;-48
2021/01/03 06:41:56;;;;;;;27.75;12.02;;;0.50;99.90;;;;;;5030154;28;20463;-47
2021/01/03 06:44:40;;;;;;;29.77;11.80;;;0.50;99.90;;;;;;5036112;28;20057;-49
2021/01/03 06:47:24;;;;;;;24.42;11.00;;;0.50;99.90;;;;;;5037336;28;20052;-49
2021/01/03 06:50:11;;;;;;;27.42;12.95;;;0.50;99.90;;;;;;5032277;28;20033;-50
2021/01/03 06:53:12;;;;;;;25.95;12.10;;;0.50;99.90;;;;;;5034664;28;20041;-52
2021/01/03 06:56:05;;;;;;;26.38;12.05;;;0.50;99.90;;;;;;5037590;28;20079;-53
2021/01/03 06:59:08;;;;;;;31.77;12.30;;;0.50;99.90;;;;;;5030885;28;20067;-50
2021/01/03 07:01:37;;;;;;;27.48;11.57;;;0.50;99.90;;;;;;5040395;28;20033;-47
2021/01/03 07:04:15;;;;;;;26.63;12.15;;;0.50;99.90;;;;;;5045978;28;20040;-50
2021/01/03 07:06:44;;;;;;;25.58;11.68;;;0.50;99.90;;;;;;5038435;28;20471;-50
2021/01/03 07:09:11;;;;;;;33.00;12.38;;;0.50;99.90;;;;;;5037358;28;20025;-52
2021/01/03 07:11:58;;;;;;;24.60;11.65;;;0.60;99.90;;;;;;5035473;28;20107;-50
2021/01/03 07:14:23;;;;;;;28.10;12.65;;;0.50;99.90;;;;;;5034420;28;20125;-48
2021/01/03 07:17:01;;;;;;;27.10;12.73;;;0.60;99.90;;;;;;5039235;28;20093;-52
2021/01/03 07:19:33;;;;;;;25.20;11.43;;;0.50;99.90;;;;;;5038729;28;20488;-50
2021/01/03 07:22:28;;;;;;;28.27;13.23;;;0.60;99.90;;;;;;5035038;28;20034;-50
2021/01/03 07:24:54;;;;;;;29.38;12.55;;;0.60;99.90;;;;;;5037733;28;20937;-48
2021/01/03 07:27:33;;;;;;;27.70;11.82;;;0.60;99.90;;;;;;5036621;28;20108;-48
2021/01/03 07:30:22;;;;;;;30.77;13.05;;;0.60;99.90;;;;;;5033241;28;20021;-52
2021/01/03 07:33:00;;;;;;;32.83;14.25;;;0.60;99.90;;;;;;5039628;28;20072;-51
2021/01/03 07:35:25;;;;;;;27.83;12.15;;;0.60;99.90;;;;;;5041108;28;20505;-50
2021/01/03 07:37:54;;;;;;;31.98;13.20;;;0.60;99.90;;;;;;5036563;28;20100;-49
2021/01/03 07:40:24;;;;;;;27.60;12.60;;;0.50;99.90;;;;;;5036114;28;20028;-52
2021/01/03 07:42:52;;;;;;;30.55;12.73;;;0.60;99.90;;;;;;5034046;28;20029;-47
2021/01/03 07:45:26;;;;;;;29.02;12.32;;;0.60;99.90;;;;;;5036567;28;20354;-49
2021/01/03 07:47:54;;;;;;;25.95;11.77;;;0.60;99.90;;;;;;5035150;28;20490;-45
2021/01/03 07:50:22;;;;;;;30.00;12.68;;;0.60;99.90;;;;;;5039388;28;20045;-51
2021/01/03 07:52:49;;;;;;;27.40;12.10;;;0.60;99.90;;;;;;5033960;28;20797;-49
2021/01/03 07:55:26;;;;;;;27.00;11.68;;;0.60;99.90;;;;;;5036091;28;20025;-49
2021/01/03 07:58:12;;;;;;;30.65;12.93;;;0.60;99.90;;;;;;5043326;28;20392;-48
2021/01/03 08:00:40;;;;;;;20.90;8.85;;;0.50;99.90;;;;;;5044792;28;20065;-53
2021/01/03 08:03:09;;;;;;;24.48;11.88;;;0.60;99.90;;;;;;5035880;28;20037;-49
2021/01/03 08:05:36;;;;;;;29.45;12.27;;;0.60;99.90;;;;;;5053734;28;20908;-47
2021/01/03 08:08:09;;;;;;;30.98;13.75;;;0.60;99.90;;;;;;5039869;28;20494;-49
2021/01/03 08:10:34;;;;;;;24.58;10.93;;;0.60;99.90;;;;;;5042246;28;20025;-48
2021/01/03 08:13:16;;;;;;;26.58;12.73;;;0.60;99.90;;;;;;5033371;28;20041;-53
2021/01/03 08:15:42;;;;;;;29.90;12.63;;;0.60;99.90;;;;;;5037939;28;20037;-51
2021/01/03 08:18:34;;;;;;;28.90;12.32;;;0.60;99.90;;;;;;5038990;28;20029;-48
2021/01/03 08:21:26;;;;;;;31.85;13.38;;;0.60;99.90;;;;;;5044793;28;20045;-52
2021/01/03 08:24:11;;;;;;;33.30;13.15;;;0.60;99.90;;;;;;5037086;28;20045;-51
2021/01/03 08:26:40;;;;;;;33.00;13.90;;;0.60;99.90;;;;;;5041307;28;20029;-48
2021/01/03 08:29:27;;;;;;;33.45;13.57;;;0.50;99.90;;;;;;5043432;28;20028;-48
2021/01/03 08:31:59;;;;;;;31.25;12.93;;;0.50;99.90;;;;;;5036252;28;20501;-50
2021/01/03 08:34:29;;;;;;;28.63;11.98;;;0.40;99.90;;;;;;5036248;28;20091;-48
2021/01/03 08:36:56;;;;;;;32.28;14.20;;;0.50;99.90;;;;;;5039171;28;20498;-49
2021/01/03 08:39:26;;;;;;;35.75;15.90;;;0.40;99.90;;;;;;5037032;28;20552;-48
2021/01/03 08:42:03;;;;;;;33.90;14.30;;;0.40;99.90;;;;;;5035857;28;20561;-51
2021/01/03 08:44:41;;;;;;;37.15;14.18;;;0.40;99.90;;;;;;5045825;28;20062;-50
2021/01/03 08:47:17;;;;;;;29.63;13.50;;;0.40;99.90;;;;;;5034976;28;20021;-49
2021/01/03 08:49:42;;;;;;;29.00;11.47;;;0.40;99.90;;;;;;5037142;28;20051;-50
2021/01/03 08:52:20;;;;;;;35.42;13.65;;;0.40;99.90;;;;;;5037116;28;20284;-51
2021/01/03 08:54:49;;;;;;;31.52;12.73;;;0.40;99.90;;;;;;5035460;28;20440;-48
2021/01/03 08:57:18;;;;;;;35.72;14.43;;;0.50;99.90;;;;;;5039912;28;20035;-46
2021/01/03 08:59:50;;;;;;;37.95;13.63;;;0.50;99.90;;;;;;5032141;28;20120;-49
2021/01/03 09:02:27;;;;;;;34.03;13.07;;;0.50;99.90;;;;;;5035298;28;20185;-55
2021/01/03 09:05:01;;;;;;;36.13;13.85;;;0.50;99.90;;;;;;5036115;28;20057;-54
2021/01/03 09:07:34;;;;;;;32.55;13.20;;;0.40;99.90;;;;;;5035675;28;20482;-53
2021/01/03 09:10:01;;;;;;;26.23;12.45;;;0.50;99.90;;;;;;5032680;28;20029;-50
2021/01/03 09:12:44;;;;;;;30.50;13.27;;;0.50;99.90;;;;;;5036441;28;20096;-50
2021/01/03 09:15:21;;;;;;;29.35;12.77;;;0.40;99.90;;;;;;5030950;28;20514;-50
2021/01/03 09:18:20;;;;;;;28.95;11.52;;;0.50;99.90;;;;;;5031903;28;20494;-50
2021/01/03 09:20:47;;;;;;;31.52;11.88;;;0.50;99.90;;;;;;5032695;28;20454;-48
2021/01/03 09:23:19;;;;;;;28.13;11.63;;;0.50;99.90;;;;;;5040010;28;20025;-53
2021/01/03 09:25:52;;;;;;;28.58;11.73;;;0.50;99.90;;;;;;5038867;28;20048;-50
2021/01/03 09:28:24;;;;;;;28.77;13.45;;;0.50;99.90;;;;;;5032665;28;20036;-51
2021/01/03 09:30:49;;;;;;;28.75;12.38;;;0.60;99.90;;;;;;5037656;28;20028;-50
2021/01/03 09:33:20;;;;;;;29.08;12.68;;;0.60;99.90;;;;;;5033049;28;20026;-51
2021/01/03 09:36:09;;;;;;;24.40;11.38;;;0.60;99.90;;;;;;5038618;28;20065;-52
2021/01/03 09:38:34;;;;;;;30.75;12.30;;;0.60;99.90;;;;;;5032074;28;20048;-56
2021/01/03 09:41:24;;;;;;;26.17;11.85;;;0.60;99.90;;;;;;5032120;28;20030;-47
2021/01/03 09:44:10;;;;;;;24.45;11.43;;;0.60;99.90;;;;;;5034101;28;20423;-46
2021/01/03 09:46:58;;;;;;;29.08;13.07;;;0.60;99.90;;;;;;5043549;28;20020;-47
2021/01/03 09:49:35;;;;;;;27.08;12.38;;;0.60;99.90;;;;;;5035743;28;20469;-47
2021/01/03 09:52:26;;;;;;;25.88;11.35;;;0.60;99.90;;;;;;5041702;28;20038;-50
2021/01/03 09:55:03;;;;;;;25.80;11.95;;;0.60;99.90;;;;;;5037443;28;20371;-48
2021/01/03 09:57:41;;;;;;;24.45;11.77;;;0.60;99.90;;;;;;5033153;28;20040;-48
2021/01/03 10:00:48;;;;;;;27.92;12.02;;;0.60;99.90;;;;;;5032512;28;20510;-46
2021/01/03 10:03:34;;;;;;;24.13;11.85;;;0.60;99.90;;;;;;5029609;28;20041;-45
2021/01/03 10:06:15;;;;;;;;;;;0.50;99.90;;;;;;5036415;28;20025;-47
2021/01/03 10:08:40;;;;;;;28.00;12.07;;;0.50;99.90;;;;;;5030256;28;19909;-47
2021/01/03 10:11:06;;;;;;;23.20;11.05;;;0.50;99.90;;;;;;5041569;28;20031;-46
2021/01/03 10:13:33;;;;;;;30.75;12.32;;;0.50;99.90;;;;;;5034137;28;20044;-47
2021/01/03 10:16:15;;;;;;;51.55;20.85;;;0.50;99.90;;;;;;5045334;28;20040;-52
2021/01/03 10:18:41;;;;;;;28.23;12.77;;;0.60;99.90;;;;;;5032785;28;20036;-46
2021/01/03 10:21:20;;;;;;;22.40;11.10;;;0.50;99.90;;;;;;5034665;28;20108;-49
2021/01/03 10:23:58;;;;;;;34.30;16.90;;;0.50;99.90;;;;;;5033957;28;20036;-47
2021/01/03 10:26:31;;;;;;;26.42;11.02;;;0.50;99.90;;;;;;5036974;28;20044;-49
2021/01/03 10:28:57;;;;;;;27.50;10.82;;;0.50;99.90;;;;;;5033286;28;20034;-48
2021/01/03 10:31:42;;;;;;;25.38;10.95;;;0.60;99.90;;;;;;5036361;28;20079;-46
2021/01/03 10:34:08;;;;;;;32.20;10.75;;;0.60;99.90;;;;;;5034544;28;20064;-47
2021/01/03 10:36:35;;;;;;;25.33;11.80;;;0.60;99.90;;;;;;5039700;28;20044;-47
2021/01/03 10:39:00;;;;;;;26.65;10.65;;;0.60;99.90;;;;;;5039785;28;20029;-46
2021/01/03 10:41:34;;;;;;;27.08;11.85;;;0.60;99.90;;;;;;5034482;28;20116;-47
2021/01/03 10:44:01;;;;;;;22.98;11.93;;;0.60;99.90;;;;;;5040238;28;20137;-49
2021/01/03 10:46:27;;;;;;;22.35;11.07;;;0.60;99.90;;;;;;5041945;28;20467;-45
2021/01/03 10:48:52;;;;;;;23.75;11.90;;;0.60;99.90;;;;;;5039015;28;20116;-44
2021/01/03 10:51:27;;;;;;;25.70;11.52;;;0.60;99.90;;;;;;5042967;28;20048;-53
2021/01/03 10:53:52;;;;;;;28.25;13.02;;;0.60;99.90;;;;;;5049787;28;20470;-49
2021/01/03 10:56:18;;;;;;;26.20;10.70;;;0.60;99.90;;;;;;5042173;28;20071;-47
2021/01/03 10:58:43;;;;;;;25.55;10.25;;;0.60;99.90;;;;;;5040973;28;20541;-46
2021/01/03 11:01:10;;;;;;;25.05;11.55;;;0.60;99.90;;;;;;5054948;28;20080;-49
2021/01/03 11:03:35;;;;;;;22.27;9.93;;;0.60;99.90;;;;;;5049767;28;20028;-44
2021/01/03 11:06:01;;;;;;;23.55;10.45;;;0.70;99.90;;;;;;5039449;28;20100;-47
2021/01/03 11:08:27;;;;;;;24.75;11.25;;;0.70;99.90;;;;;;5035185;28;20033;-50
2021/01/03 11:10:53;;;;;;;17.90;9.38;;;0.70;99.90;;;;;;5054007;28;20074;-49
2021/01/03 11:13:18;;;;;;;24.27;9.50;;;0.60;99.90;;;;;;5044365;28;20047;-50
2021/01/03 11:15:44;;;;;;;22.05;10.57;;;0.70;99.90;;;;;;5040347;28;20108;-51
2021/01/03 11:18:10;;;;;;;21.52;10.25;;;0.70;99.90;;;;;;5043540;28;20029;-53
2021/01/03 11:20:36;;;;;;;23.48;10.68;;;0.70;99.90;;;;;;5044068;28;20462;-49
2021/01/03 11:23:01;;;;;;;20.05;9.65;;;0.70;99.90;;;;;;5039163;28;20033;-49
2021/01/03 11:25:27;;;;;;;19.60;8.63;;;0.70;99.90;;;;;;5043487;28;20049;-48
2021/01/03 11:27:52;;;;;;;21.38;8.65;;;0.80;99.90;;;;;;5045924;28;20114;-50
2021/01/03 11:30:19;;;;;;;19.73;8.73;;;0.80;99.90;;;;;;5042934;28;20052;-45
2021/01/03 11:32:45;;;;;;;18.20;8.70;;;0.80;99.90;;;;;;5042507;28;20044;-46
2021/01/03 11:35:11;;;;;;;18.02;8.63;;;0.80;99.90;;;;;;5047452;28;20490;-49
2021/01/03 11:37:37;;;;;;;16.48;8.73;;;0.80;99.90;;;;;;5040341;28;20044;-52
2021/01/03 11:40:04;;;;;;;19.40;9.10;;;0.80;99.90;;;;;;5039482;28;20025;-49
2021/01/03 11:42:35;;;;;;;17.98;8.60;;;0.80;99.90;;;;;;5033352;28;20052;-47
2021/01/03 11:45:01;;;;;;;14.73;7.55;;;0.80;99.90;;;;;;5043608;28;20033;-47
2021/01/03 11:47:30;;;;;;;16.05;7.97;;;0.80;99.90;;;;;;5035288;28;20116;-50
2021/01/03 11:49:55;;;;;;;20.73;9.00;;;0.80;99.90;;;;;;5044834;28;20465;-51
2021/01/03 11:52:24;;;;;;;16.63;8.73;;;0.80;99.90;;;;;;5036558;28;20057;-46
2021/01/03 11:54:49;;;;;;;15.90;7.88;;;0.90;99.90;;;;;;5035748;28;20031;-48
2021/01/03 11:57:15;;;;;;;20.65;9.13;;;0.90;99.90;;;;;;5037497;28;20107;-46
2021/01/03 11:59:40;;;;;;;18.33;8.88;;;0.80;99.90;;;;;;5038155;28;20943;-52
2021/01/03 12:02:10;;;;;;;19.50;9.50;;;0.90;99.90;;;;;;5038690;28;20168;-47
2021/01/03 12:04:37;;;;;;;18.00;8.88;;;0.80;99.90;;;;;;5039014;28;20048;-49
2021/01/03 12:07:07;;;;;;;20.38;9.68;;;0.80;99.90;;;;;;5036182;28;20033;-53
2021/01/03 12:09:33;;;;;;;19.80;9.57;;;0.70;99.90;;;;;;5039021;28;20424;-49
2021/01/03 12:12:00;;;;;;;20.77;9.77;;;0.80;99.90;;;;;;5035820;28;20038;-49
2021/01/03 12:14:27;;;;;;;18.48;9.35;;;0.80;99.90;;;;;;5035264;28;20026;-49
2021/01/03 12:16:57;;;;;;;15.07;8.45;;;0.70;99.90;;;;;;5037255;28;20393;-48
2021/01/03 12:19:23;;;;;;;20.50;9.65;;;0.80;99.90;;;;;;5035949;28;20056;-49
2021/01/03 12:21:49;;;;;;;20.83;10.63;;;0.80;99.90;;;;;;5044590;28;20025;-48
2021/01/03 12:24:14;;;;;;;26.98;12.93;;;0.80;99.90;;;;;;5039657;28;20026;-51
2021/01/03 12:26:42;;;;;;;20.15;9.82;;;0.80;99.90;;;;;;5055368;28;20030;-46
2021/01/03 12:29:10;;;;;;;21.60;11.30;;;0.80;99.90;;;;;;5052607;28;20036;-49
2021/01/03 12:31:38;;;;;;;21.67;9.82;;;0.80;99.90;;;;;;5047368;28;20066;-46
2021/01/03 12:34:05;;;;;;;21.92;11.65;;;0.80;99.90;;;;;;5042425;28;20072;-45
2021/01/03 12:36:31;;;;;;;21.88;11.05;;;0.80;99.90;;;;;;5032712;28;20390;-49
2021/01/03 12:38:57;;;;;;;18.05;10.70;;;0.70;99.90;;;;;;5042872;28;20029;-48
2021/01/03 12:41:23;;;;;;;21.70;11.07;;;0.70;99.90;;;;;;5037675;28;20040;-47
2021/01/03 12:43:49;;;;;;;25.63;12.93;;;0.80;99.90;;;;;;5035929;28;20037;-48
2021/01/03 12:46:25;;;;;;;27.15;14.27;;;0.70;99.90;;;;;;5047502;28;20025;-46
2021/01/03 12:48:50;;;;;;;25.52;12.02;;;0.80;99.90;;;;;;5044059;28;20037;-44
2021/01/03 12:51:16;;;;;;;24.40;10.23;;;0.80;99.90;;;;;;5043211;28;20033;-51
2021/01/03 12:53:41;;;;;;;21.60;11.00;;;0.80;99.90;;;;;;5043864;28;20045;-45
2021/01/03 12:56:06;;;;;;;21.77;11.95;;;0.80;99.90;;;;;;5045921;28;20065;-49
2021/01/03 12:58:33;;;;;;;26.40;13.48;;;0.80;99.90;;;;;;5037321;28;20505;-49
2021/01/03 13:00:59;;;;;;;21.23;12.38;;;0.80;99.90;;;;;;5049441;28;20470;-52